This is the latest recevied weather packets stored in our database for station/object VU25RK-13. If no packets are shown the sender has not sent any weather packets the latest 10 day(s).
| Time | Temp. | Humidity | Pressure | Rain* | Wind** | Luminosity | Snow |
|---|---|---|---|---|---|---|---|
| 1777984632 | 31.11° C | 35% | 1010.4 hPa | - | - | - | - |
| 1777983431 | 31.67° C | 33% | 1010.4 hPa | - | - | - | - |
| 1777982231 | 31.67° C | 31% | 1010.1 hPa | - | - | - | - |
| 1777981029 | 32.22° C | 31% | 1010.1 hPa | - | - | - | - |
| 1777979830 | 32.22° C | 31% | 1010.1 hPa | - | - | - | - |
| 1777978632 | 32.22° C | 30% | 1009.9 hPa | - | - | - | - |
| 1777975089 | 32.78° C | 29% | 1010.2 hPa | - | - | - | - |
| 1777972217 | 33.33° C | 26% | 1011 hPa | - | - | - | - |
| 1777971016 | 33.33° C | 26% | 1011 hPa | - | - | - | - |
| 1777963438 | 32.78° C | 29% | 1012.8 hPa | - | - | - | - |
| 1777962237 | 32.22° C | 29% | 1012.8 hPa | - | - | - | - |
| 1777961036 | 32.22° C | 34% | 1013.3 hPa | - | - | - | - |
| 1777954332 | 26.67° C | 63% | 1013.4 hPa | - | - | - | - |
| 1777904824 | 29.44° C | 44% | 1011.2 hPa | - | - | - | - |
| 1777903623 | 30° C | 34% | 1010.7 hPa | - | - | - | - |
| 1777902422 | 30° C | 34% | 1010.7 hPa | - | - | - | - |
| 1777901221 | 32.22° C | 31% | 1011.1 hPa | - | - | - | - |
| 1777900021 | 32.22° C | 32% | 1010.1 hPa | - | - | - | - |
| 1777898777 | 32.22° C | 25% | 1010.1 hPa | - | - | - | - |
| 1777897576 | 32.78° C | 25% | 1010.1 hPa | - | - | - | - |
| 1777896376 | 33.33° C | 25% | 1009.7 hPa | - | - | - | - |
| 1777895176 | 33.33° C | 25% | 1009.7 hPa | - | - | - | - |
| 1777892714 | 34.44° C | 23% | 1009.5 hPa | - | - | - | - |
| 1777888433 | 34.44° C | 24% | 1009.8 hPa | - | - | - | - |
| 1777883440 | 34.44° C | 25% | 1010.7 hPa | - | - | - | - |
* Rain since midnight (hover to see other rain measurements)
** Current wind speed in m/s (hover to see current wind gust speed)